Time;durP1;ratioP1;P1;durP2;ratioP2;P2;SDS_P1;SDS_P2;PMS_P1;PMS_P2;Temp;Humidity;BMP_temperature;BMP_pressure;BME280_temperature;BME280_humidity;BME280_pressure;Samples;Min_cycle;Max_cycle;Signal;HPM_P1;HPM_P2
2022/09/03 00:00:15;;;;;;;3.05;2.10;;;15.80;99.90;;;;;;5048692;28;20087;-62
2022/09/03 00:02:45;;;;;;;4.03;1.88;;;15.80;99.90;;;;;;5037065;28;20124;-62
2022/09/03 00:05:33;;;;;;;4.17;2.17;;;15.90;99.90;;;;;;5037790;28;20040;-63
2022/09/03 00:08:27;;;;;;;6.18;2.30;;;15.90;99.90;;;;;;5048904;28;20116;-63
2022/09/03 00:11:00;;;;;;;3.70;2.05;;;15.90;99.90;;;;;;5041933;28;20032;-62
2022/09/03 00:13:51;;;;;;;6.03;2.38;;;15.80;99.90;;;;;;5049007;28;20065;-62
2022/09/03 00:16:21;;;;;;;9.20;2.05;;;15.80;99.90;;;;;;5048911;28;20123;-63
2022/09/03 00:18:56;;;;;;;6.55;2.47;;;15.80;99.90;;;;;;5047312;28;20049;-62
2022/09/03 00:21:39;;;;;;;2.85;1.70;;;15.70;99.90;;;;;;5048445;28;20037;-62
2022/09/03 00:24:10;;;;;;;5.30;2.00;;;15.70;99.90;;;;;;5040130;28;20029;-62
2022/09/03 00:26:38;;;;;;;4.57;2.03;;;15.50;99.90;;;;;;5049305;28;20033;-62
2022/09/03 00:29:10;;;;;;;6.55;1.73;;;15.50;99.90;;;;;;5049228;28;20119;-63
2022/09/03 00:31:38;;;;;;;3.90;2.08;;;15.50;99.90;;;;;;5046711;28;20057;-62
2022/09/03 00:34:20;;;;;;;8.23;2.10;;;15.60;99.90;;;;;;5032156;28;20038;-62
2022/09/03 00:36:45;;;;;;;6.47;2.72;;;15.70;99.90;;;;;;5030628;28;20060;-61
2022/09/03 00:39:22;;;;;;;2.58;1.85;;;15.70;99.90;;;;;;5029172;28;20064;-62
2022/09/03 00:41:55;;;;;;;7.82;2.08;;;15.80;99.90;;;;;;5047370;28;20028;-62
2022/09/03 00:44:36;;;;;;;4.50;2.05;;;15.80;99.90;;;;;;5046534;28;20061;-62
2022/09/03 00:47:08;;;;;;;;;;;15.90;99.90;;;;;;5029950;28;20037;-62
2022/09/03 00:49:42;;;;;;;3.60;2.13;;;15.80;99.90;;;;;;5043601;28;19920;-62
2022/09/03 00:52:34;;;;;;;3.80;1.90;;;15.80;99.90;;;;;;5040288;28;20029;-61
2022/09/03 00:55:25;;;;;;;6.57;2.10;;;15.80;99.90;;;;;;5037187;28;20235;-61
2022/09/03 00:58:29;;;;;;;5.88;2.10;;;15.90;99.90;;;;;;5042320;28;20064;-62
2022/09/03 01:00:55;;;;;;;10.65;2.65;;;15.90;99.90;;;;;;5010345;28;20072;-62
2022/09/03 01:03:57;;;;;;;3.45;1.90;;;16.00;99.90;;;;;;5029366;28;20111;-61
2022/09/03 01:06:41;;;;;;;5.13;1.90;;;16.00;99.90;;;;;;5042703;28;20114;-62
2022/09/03 01:09:47;;;;;;;4.35;2.08;;;15.90;99.90;;;;;;5047483;28;20116;-62
2022/09/03 01:12:22;;;;;;;3.72;2.15;;;15.90;99.90;;;;;;5042591;28;20076;-62
2022/09/03 01:15:03;;;;;;;4.22;2.53;;;15.90;99.90;;;;;;5047091;28;20476;-61
2022/09/03 01:17:54;;;;;;;6.82;2.03;;;15.80;99.90;;;;;;5038180;28;20025;-63
2022/09/03 01:20:32;;;;;;;3.05;2.05;;;15.80;99.90;;;;;;5041483;28;20079;-64
2022/09/03 01:23:34;;;;;;;3.08;2.13;;;15.70;99.90;;;;;;5037827;28;20037;-61
2022/09/03 01:26:30;;;;;;;3.63;2.20;;;15.60;99.90;;;;;;5041515;28;20044;-62
2022/09/03 01:29:24;;;;;;;4.43;1.88;;;15.60;99.90;;;;;;5048365;28;20033;-62
2022/09/03 01:32:05;;;;;;;4.07;2.15;;;15.40;99.90;;;;;;5048385;28;20431;-63
2022/09/03 01:34:58;;;;;;;2.72;2.13;;;15.30;99.90;;;;;;5047415;28;20025;-62
2022/09/03 01:37:39;;;;;;;3.33;2.20;;;15.30;99.90;;;;;;5047493;28;20112;-62
2022/09/03 01:40:20;;;;;;;;;;;15.10;99.90;;;;;;5045887;28;20469;-63
2022/09/03 01:42:53;;;;;;;6.55;2.30;;;15.10;99.90;;;;;;5045396;28;19913;-61
2022/09/03 01:45:33;;;;;;;3.33;2.38;;;15.00;99.90;;;;;;5039290;28;20135;-62
2022/09/03 01:48:21;;;;;;;4.03;2.63;;;15.00;99.90;;;;;;5050495;28;20040;-63
2022/09/03 01:50:56;;;;;;;6.60;2.60;;;14.90;99.90;;;;;;5034577;28;20040;-61
2022/09/03 01:53:45;;;;;;;5.45;3.03;;;14.80;99.90;;;;;;5051455;28;20086;-62
2022/09/03 01:56:33;;;;;;;3.72;2.33;;;14.80;99.90;;;;;;5050111;28;20072;-62
2022/09/03 01:59:21;;;;;;;4.18;2.35;;;14.80;99.90;;;;;;5047964;28;20032;-62
2022/09/03 02:02:06;;;;;;;4.13;2.58;;;14.80;99.90;;;;;;5054378;28;20037;-62
2022/09/03 02:04:32;;;;;;;4.05;2.33;;;14.80;99.90;;;;;;5052888;28;20075;-62
2022/09/03 02:07:00;;;;;;;5.93;2.58;;;15.00;99.90;;;;;;5039503;28;20393;-62
2022/09/03 02:09:27;;;;;;;2.72;2.00;;;15.00;99.90;;;;;;5036735;28;20029;-62
2022/09/03 02:12:15;;;;;;;3.30;2.38;;;15.10;99.90;;;;;;5037251;28;20073;-63
2022/09/03 02:14:41;;;;;;;4.72;2.13;;;15.00;99.90;;;;;;5039341;28;20115;-61
2022/09/03 02:17:07;;;;;;;4.05;2.50;;;15.10;99.90;;;;;;5051400;28;20122;-62
2022/09/03 02:19:36;;;;;;;3.75;2.50;;;15.00;99.90;;;;;;5049277;28;20083;-62
2022/09/03 02:22:03;;;;;;;5.30;2.50;;;15.00;99.90;;;;;;5035487;28;20041;-62
2022/09/03 02:24:28;;;;;;;4.13;2.38;;;15.10;99.90;;;;;;5053643;28;20853;-63
2022/09/03 02:26:55;;;;;;;4.18;2.53;;;15.20;99.90;;;;;;5050607;28;20033;-61
2022/09/03 02:29:21;;;;;;;5.25;2.50;;;15.30;99.90;;;;;;5050484;28;20032;-61
2022/09/03 02:31:47;;;;;;;4.97;2.80;;;15.40;99.90;;;;;;5037263;28;20520;-61
2022/09/03 02:34:13;;;;;;;5.50;2.83;;;15.40;99.90;;;;;;5051324;28;20041;-61
2022/09/03 02:36:42;;;;;;;4.00;2.03;;;15.40;99.90;;;;;;5052266;28;20033;-62
2022/09/03 02:39:07;;;;;;;3.80;2.40;;;15.50;99.90;;;;;;5051555;28;20036;-62
2022/09/03 02:41:33;;;;;;;6.38;2.60;;;15.40;99.90;;;;;;5039947;28;20404;-62
2022/09/03 02:44:07;;;;;;;3.25;2.30;;;15.40;99.90;;;;;;5051941;28;20595;-62
2022/09/03 02:46:49;;;;;;;3.58;2.47;;;15.30;99.90;;;;;;5042950;28;20037;-62
2022/09/03 02:49:15;;;;;;;3.92;2.45;;;15.30;99.90;;;;;;5052144;28;20037;-62
2022/09/03 02:51:43;;;;;;;5.82;2.50;;;15.20;99.90;;;;;;5037716;28;20095;-62
2022/09/03 02:54:10;;;;;;;5.07;2.45;;;15.30;99.90;;;;;;5032443;28;20051;-64
2022/09/03 02:56:36;;;;;;;4.03;2.45;;;15.30;99.90;;;;;;5041686;28;20087;-62
2022/09/03 02:59:04;;;;;;;3.35;2.45;;;15.40;99.90;;;;;;5051965;28;20067;-62
2022/09/03 03:01:30;;;;;;;3.75;2.38;;;15.40;99.90;;;;;;5048207;28;20651;-63
2022/09/03 03:03:56;;;;;;;3.90;2.53;;;15.50;99.90;;;;;;5031095;28;20210;-62
2022/09/03 03:06:22;;;;;;;5.82;3.05;;;15.50;99.90;;;;;;5039982;28;20116;-62
2022/09/03 03:08:49;;;;;;;4.30;2.40;;;15.50;99.90;;;;;;5051815;28;20032;-62
2022/09/03 03:11:17;;;;;;;5.78;2.50;;;15.60;99.90;;;;;;5050107;28;20043;-62
2022/09/03 03:13:44;;;;;;;3.60;2.45;;;15.60;99.90;;;;;;5051110;28;20103;-62
2022/09/03 03:16:11;;;;;;;4.00;2.33;;;15.70;99.90;;;;;;5049363;28;20033;-62
2022/09/03 03:18:38;;;;;;;3.88;2.58;;;15.70;99.90;;;;;;5050356;28;20085;-62
2022/09/03 03:21:15;;;;;;;3.58;2.60;;;15.70;99.90;;;;;;5031924;28;20051;-63
2022/09/03 03:23:41;;;;;;;5.07;2.50;;;15.70;99.90;;;;;;5035204;28;20062;-61
2022/09/03 03:26:12;;;;;;;5.13;2.50;;;15.70;99.90;;;;;;5034399;28;20033;-61
2022/09/03 03:28:38;;;;;;;4.50;2.83;;;15.70;99.90;;;;;;5050595;28;20028;-62
2022/09/03 03:31:12;;;;;;;4.18;2.60;;;15.70;99.90;;;;;;5053369;28;20550;-63
2022/09/03 03:33:39;;;;;;;5.40;2.40;;;15.60;99.90;;;;;;5043017;28;20584;-61
2022/09/03 03:36:14;;;;;;;3.22;2.65;;;15.60;99.90;;;;;;5048614;28;20048;-63
2022/09/03 03:38:42;;;;;;;4.88;2.63;;;15.60;99.90;;;;;;5045544;28;20025;-62
2022/09/03 03:41:42;;;;;;;5.13;2.88;;;15.60;99.90;;;;;;5041351;28;20393;-62
2022/09/03 03:44:08;;;;;;;6.13;2.72;;;15.50;99.90;;;;;;5031203;28;20131;-63
2022/09/03 03:46:38;;;;;;;7.88;2.78;;;15.50;99.90;;;;;;5035833;28;20807;-62
2022/09/03 03:49:05;;;;;;;4.43;2.90;;;15.50;99.90;;;;;;5049111;28;20045;-63
2022/09/03 03:51:32;;;;;;;6.70;2.65;;;15.50;99.90;;;;;;5048325;28;20040;-63
2022/09/03 03:53:58;;;;;;;5.88;2.70;;;15.60;99.90;;;;;;5044388;28;20478;-62
2022/09/03 03:56:25;;;;;;;3.88;2.70;;;15.60;99.90;;;;;;5045275;28;20381;-62
2022/09/03 03:58:51;;;;;;;3.78;2.40;;;15.70;99.90;;;;;;5046261;28;20032;-62
2022/09/03 04:01:20;;;;;;;6.35;2.47;;;15.70;99.90;;;;;;5053709;28;20362;-62
2022/09/03 04:03:46;;;;;;;6.70;2.53;;;15.70;99.90;;;;;;5046419;28;20048;-62
2022/09/03 04:06:14;;;;;;;4.30;2.75;;;15.70;99.90;;;;;;5042739;28;20029;-63
2022/09/03 04:08:42;;;;;;;4.97;3.05;;;15.70;99.90;;;;;;5042984;28;20021;-62
2022/09/03 04:11:10;;;;;;;3.67;2.55;;;15.80;99.90;;;;;;5053981;28;20155;-63
2022/09/03 04:13:38;;;;;;;5.35;2.70;;;15.70;99.90;;;;;;5049774;28;21222;-63
2022/09/03 04:16:12;;;;;;;5.72;2.60;;;15.70;99.90;;;;;;5042967;28;20052;-62
2022/09/03 04:18:39;;;;;;;4.90;2.58;;;15.70;99.90;;;;;;5051203;28;20045;-62
2022/09/03 04:21:10;;;;;;;4.30;2.88;;;15.70;99.90;;;;;;5051390;28;20033;-62
2022/09/03 04:23:39;;;;;;;3.78;2.40;;;15.70;99.90;;;;;;5047501;28;21732;-63
2022/09/03 04:26:05;;;;;;;8.05;2.80;;;15.70;99.90;;;;;;5052395;28;20470;-62
2022/09/03 04:28:32;;;;;;;6.07;2.75;;;15.70;99.90;;;;;;5048264;28;20083;-63
2022/09/03 04:31:06;;;;;;;4.13;2.40;;;15.70;99.90;;;;;;5050024;28;20037;-63
2022/09/03 04:33:32;;;;;;;4.60;3.03;;;15.60;99.90;;;;;;5050928;28;20037;-63
2022/09/03 04:36:19;;;;;;;4.40;2.80;;;15.60;99.90;;;;;;5048862;28;20442;-62
2022/09/03 04:38:47;;;;;;;4.28;2.90;;;15.60;99.90;;;;;;5052090;28;20032;-62
2022/09/03 04:41:15;;;;;;;6.00;2.97;;;15.60;99.90;;;;;;5051289;28;20039;-62
2022/09/03 04:43:42;;;;;;;4.03;2.60;;;15.50;99.90;;;;;;5050263;28;20393;-62
2022/09/03 04:46:08;;;;;;;4.57;2.95;;;15.50;99.90;;;;;;5050505;28;20032;-63
2022/09/03 04:48:35;;;;;;;5.28;2.83;;;15.50;99.90;;;;;;5042780;28;20094;-62
2022/09/03 04:51:05;;;;;;;6.57;2.90;;;15.50;99.90;;;;;;5045895;28;20040;-61
2022/09/03 04:53:38;;;;;;;4.15;3.28;;;15.50;99.90;;;;;;5038351;28;20028;-62
2022/09/03 04:56:16;;;;;;;5.38;2.92;;;15.40;99.90;;;;;;5054911;28;20441;-62
2022/09/03 04:58:42;;;;;;;4.70;2.95;;;15.50;99.90;;;;;;5040966;28;20032;-62
2022/09/03 05:01:18;;;;;;;7.00;2.92;;;15.40;99.90;;;;;;5037728;28;20076;-62
2022/09/03 05:03:45;;;;;;;4.05;2.90;;;15.40;99.90;;;;;;5046167;28;20028;-63
2022/09/03 05:06:11;;;;;;;7.28;3.35;;;15.40;99.90;;;;;;5049777;28;20025;-62
2022/09/03 05:08:39;;;;;;;4.93;2.72;;;15.40;99.90;;;;;;5048819;28;20056;-62
2022/09/03 05:11:06;;;;;;;4.45;3.20;;;15.50;99.90;;;;;;5047552;28;20558;-63
2022/09/03 05:13:33;;;;;;;5.45;3.33;;;15.50;99.90;;;;;;5041950;28;20067;-63
2022/09/03 05:16:00;;;;;;;4.40;3.17;;;15.40;99.90;;;;;;5047186;28;20378;-62
2022/09/03 05:18:27;;;;;;;6.38;3.20;;;15.40;99.90;;;;;;5056456;28;20095;-61
2022/09/03 05:21:00;;;;;;;4.13;3.08;;;15.50;99.90;;;;;;5040392;28;20037;-64
2022/09/03 05:23:27;;;;;;;5.55;3.15;;;15.50;99.90;;;;;;5050174;28;20047;-62
2022/09/03 05:25:58;;;;;;;8.93;3.17;;;15.50;99.90;;;;;;5048333;28;20064;-63
2022/09/03 05:28:29;;;;;;;4.57;3.20;;;15.60;99.90;;;;;;5047514;28;20056;-62
2022/09/03 05:31:25;;;;;;;;;;;15.60;99.90;;;;;;5053113;28;20044;-62
2022/09/03 05:33:53;;;;;;;6.05;3.13;;;15.60;99.90;;;;;;5058633;28;19908;-62
2022/09/03 05:36:23;;;;;;;7.15;3.20;;;15.70;99.90;;;;;;5049364;28;20039;-63
2022/09/03 05:38:50;;;;;;;3.85;2.80;;;15.70;99.90;;;;;;5051000;28;20033;-62
2022/09/03 05:41:17;;;;;;;5.18;3.33;;;15.70;99.90;;;;;;5045297;28;20484;-62
2022/09/03 05:43:43;;;;;;;6.50;3.30;;;15.70;99.90;;;;;;5039611;28;20033;-62
2022/09/03 05:46:17;;;;;;;5.07;3.40;;;15.80;99.90;;;;;;5045773;28;20037;-62
2022/09/03 05:48:43;;;;;;;8.25;3.50;;;15.80;99.90;;;;;;5032918;28;20030;-61
2022/09/03 05:51:15;;;;;;;4.55;3.30;;;15.70;99.90;;;;;;5038048;28;20454;-62
2022/09/03 05:53:41;;;;;;;6.45;3.08;;;15.70;99.90;;;;;;5034811;28;20045;-62
2022/09/03 05:56:12;;;;;;;8.95;3.30;;;15.70;99.90;;;;;;5039450;28;20072;-62
2022/09/03 05:58:43;;;;;;;6.47;3.22;;;15.60;99.90;;;;;;5042571;28;20117;-62
2022/09/03 06:01:30;;;;;;;5.30;3.47;;;15.80;99.90;;;;;;5038930;28;20038;-63
2022/09/03 06:04:01;;;;;;;5.05;3.40;;;15.80;99.90;;;;;;5029296;28;20394;-61
2022/09/03 06:06:30;;;;;;;9.43;3.50;;;15.90;99.90;;;;;;5031662;28;20465;-63
2022/09/03 06:08:58;;;;;;;4.97;3.33;;;15.90;99.90;;;;;;5032133;28;20029;-62
2022/09/03 06:11:28;;;;;;;7.85;3.60;;;15.90;99.90;;;;;;5027945;28;20391;-62
2022/09/03 06:14:00;;;;;;;5.55;2.97;;;16.00;99.90;;;;;;5029543;28;20496;-63
2022/09/03 06:16:26;;;;;;;6.63;3.55;;;16.00;99.90;;;;;;5043808;28;20033;-63
2022/09/03 06:18:52;;;;;;;6.75;3.50;;;16.00;99.90;;;;;;5043095;28;20048;-62
2022/09/03 06:21:18;;;;;;;6.32;3.70;;;16.00;99.90;;;;;;5036468;28;20266;-63
2022/09/03 06:23:52;;;;;;;4.55;3.30;;;16.00;99.90;;;;;;5054268;28;20529;-62
2022/09/03 06:26:19;;;;;;;6.30;3.72;;;16.00;99.90;;;;;;5048793;28;20112;-62
2022/09/03 06:28:47;;;;;;;6.43;3.20;;;16.00;99.90;;;;;;5049117;28;20083;-62
2022/09/03 06:31:15;;;;;;;5.20;3.58;;;16.10;99.90;;;;;;5033401;28;20053;-63
2022/09/03 06:33:41;;;;;;;5.43;3.70;;;16.20;99.90;;;;;;5032095;28;20463;-63
2022/09/03 06:36:12;;;;;;;6.40;3.50;;;16.20;99.90;;;;;;5050219;28;20060;-62
2022/09/03 06:38:38;;;;;;;8.90;3.60;;;16.20;99.90;;;;;;5047975;28;20724;-63
2022/09/03 06:41:09;;;;;;;5.65;3.47;;;16.20;99.90;;;;;;5052107;28;20044;-63
2022/09/03 06:43:36;;;;;;;6.65;3.92;;;16.40;99.90;;;;;;5051653;28;20457;-63
2022/09/03 06:46:03;;;;;;;6.60;3.72;;;16.40;99.90;;;;;;5051222;28;20032;-63
2022/09/03 06:48:31;;;;;;;6.35;3.65;;;16.30;99.90;;;;;;5050836;28;20043;-63
2022/09/03 06:51:00;;;;;;;9.13;3.53;;;16.30;99.90;;;;;;5052300;28;20123;-63
2022/09/03 06:53:27;;;;;;;5.57;3.20;;;16.40;99.90;;;;;;5051403;28;20021;-64
2022/09/03 06:55:58;;;;;;;4.97;3.47;;;16.40;99.90;;;;;;5052099;28;20082;-62
2022/09/03 06:58:28;;;;;;;4.78;3.33;;;16.30;99.90;;;;;;5051595;28;20029;-65
2022/09/03 07:00:59;;;;;;;6.68;3.20;;;16.30;99.90;;;;;;5052149;28;20029;-63
2022/09/03 07:03:25;;;;;;;7.10;3.58;;;16.40;99.90;;;;;;5049151;28;20063;-63
2022/09/03 07:05:50;;;;;;;5.03;3.60;;;16.40;99.90;;;;;;5051979;28;20485;-62
2022/09/03 07:08:16;;;;;;;4.63;3.42;;;16.30;99.90;;;;;;5052002;28;20111;-64
2022/09/03 07:10:46;;;;;;;6.93;3.65;;;16.30;99.90;;;;;;5051086;28;20095;-62
2022/09/03 07:13:12;;;;;;;6.93;3.80;;;16.20;99.90;;;;;;5051848;28;20108;-63
2022/09/03 07:15:39;;;;;;;5.25;3.72;;;16.30;99.90;;;;;;5051061;28;20029;-62
2022/09/03 07:18:04;;;;;;;5.78;3.75;;;16.30;99.90;;;;;;5050393;28;20041;-64
2022/09/03 07:20:30;;;;;;;6.25;3.75;;;16.40;99.90;;;;;;5050873;28;20386;-63
2022/09/03 07:22:56;;;;;;;7.45;3.83;;;16.50;99.90;;;;;;5051606;28;20108;-63
2022/09/03 07:25:24;;;;;;;5.50;3.40;;;16.60;99.90;;;;;;5051662;28;20124;-62
2022/09/03 07:27:51;;;;;;;8.23;4.00;;;16.70;99.90;;;;;;5051268;28;20055;-63
2022/09/03 07:30:18;;;;;;;6.13;4.00;;;16.70;99.90;;;;;;5051475;28;20452;-63
2022/09/03 07:32:45;;;;;;;5.72;3.90;;;16.70;99.90;;;;;;5049603;28;20035;-63
2022/09/03 07:35:12;;;;;;;5.05;4.03;;;16.80;99.90;;;;;;5050559;28;20032;-62
2022/09/03 07:37:41;;;;;;;4.93;3.67;;;16.90;99.90;;;;;;5050587;28;20039;-63
2022/09/03 07:40:09;;;;;;;6.55;4.15;;;17.00;99.90;;;;;;5051253;28;20060;-63
2022/09/03 07:42:37;;;;;;;11.07;4.30;;;17.20;99.90;;;;;;5050353;28;20033;-63
2022/09/03 07:45:08;;;;;;;6.35;4.05;;;17.40;99.90;;;;;;5051216;28;20025;-63
2022/09/03 07:47:34;;;;;;;7.13;4.30;;;17.70;99.90;;;;;;5050299;28;20026;-61
2022/09/03 07:50:00;;;;;;;7.70;4.25;;;17.90;99.90;;;;;;5049921;28;20032;-63
2022/09/03 07:52:26;;;;;;;7.20;4.85;;;18.10;99.90;;;;;;5050052;28;20040;-63
2022/09/03 07:54:52;;;;;;;7.22;4.20;;;18.00;99.90;;;;;;5050564;28;20029;-62
2022/09/03 07:57:18;;;;;;;6.50;4.20;;;18.00;99.90;;;;;;5050928;28;20021;-63
2022/09/03 07:59:43;;;;;;;8.57;4.40;;;18.20;99.90;;;;;;5050131;28;20166;-62
2022/09/03 08:02:09;;;;;;;7.25;4.53;;;18.30;99.90;;;;;;5050979;28;20036;-64
2022/09/03 08:04:35;;;;;;;6.88;4.55;;;18.40;99.90;;;;;;5050069;28;20023;-62
2022/09/03 08:07:02;;;;;;;7.82;4.57;;;18.50;99.90;;;;;;5049930;28;20545;-63
2022/09/03 08:09:28;;;;;;;10.07;4.45;;;18.70;99.90;;;;;;5050207;28;20378;-63
2022/09/03 08:11:53;;;;;;;6.15;4.28;;;18.80;99.90;;;;;;5048984;28;20033;-62
2022/09/03 08:14:19;;;;;;;5.30;4.18;;;18.90;99.90;;;;;;5049353;28;20494;-62
2022/09/03 08:16:46;;;;;;;8.27;4.60;;;18.80;99.90;;;;;;5041937;28;20043;-64
2022/09/03 08:19:12;;;;;;;7.10;4.95;;;18.90;99.90;;;;;;5038715;28;20140;-63
2022/09/03 08:21:40;;;;;;;5.93;4.45;;;19.00;99.90;;;;;;5034794;28;20033;-62
2022/09/03 08:24:07;;;;;;;6.47;4.90;;;19.00;99.90;;;;;;5042308;28;20044;-62
2022/09/03 08:26:35;;;;;;;6.97;4.50;;;19.10;99.90;;;;;;5045119;28;20025;-63
2022/09/03 08:29:02;;;;;;;8.07;4.22;;;19.20;99.90;;;;;;5049334;28;20118;-63
2022/09/03 08:31:29;;;;;;;6.90;4.80;;;19.30;99.90;;;;;;5045819;28;20032;-63
2022/09/03 08:33:56;;;;;;;10.90;4.68;;;19.30;99.90;;;;;;5044535;28;20122;-62
2022/09/03 08:36:30;;;;;;;7.20;4.63;;;19.20;99.90;;;;;;5048513;28;20028;-64
2022/09/03 08:39:02;;;;;;;7.60;4.43;;;19.30;99.90;;;;;;5047047;28;20035;-62
2022/09/03 08:41:50;;;;;;;7.05;4.80;;;19.30;99.90;;;;;;5049340;28;20044;-62
2022/09/03 08:44:22;;;;;;;6.05;4.45;;;19.40;99.90;;;;;;5047804;28;20037;-63
2022/09/03 08:47:13;;;;;;;7.10;4.78;;;19.30;99.90;;;;;;5050557;28;20118;-62
2022/09/03 08:50:01;;;;;;;6.47;4.60;;;19.40;99.90;;;;;;5047715;28;20131;-63
2022/09/03 08:52:31;;;;;;;7.65;4.72;;;19.60;99.90;;;;;;5047865;28;20538;-63
2022/09/03 08:55:21;;;;;;;7.68;4.57;;;19.60;99.90;;;;;;5049010;28;20452;-63
2022/09/03 08:57:49;;;;;;;5.53;4.50;;;19.60;99.90;;;;;;5048769;28;20029;-62
2022/09/03 09:00:16;;;;;;;8.02;4.75;;;19.50;99.90;;;;;;5047944;28;20331;-62
2022/09/03 09:03:29;;;;;;;6.28;4.38;;;19.40;99.90;;;;;;5048189;28;20039;-62
2022/09/03 09:06:12;;;;;;;9.60;4.25;;;19.40;99.90;;;;;;4993362;28;20040;-62
2022/09/03 09:08:52;;;;;;;7.18;4.47;;;19.40;99.90;;;;;;5048927;28;20032;-64
2022/09/03 09:11:21;;;;;;;5.88;4.47;;;19.40;99.90;;;;;;5062264;28;20660;-63
2022/09/03 09:13:55;;;;;;;11.55;4.97;;;19.60;99.90;;;;;;5036679;28;20386;-63
2022/09/03 09:16:31;;;;;;;9.77;5.07;;;19.60;99.90;;;;;;5048887;28;20033;-61
2022/09/03 09:19:28;;;;;;;6.93;4.60;;;19.80;99.90;;;;;;5031923;28;20057;-62
2022/09/03 09:22:01;;;;;;;6.55;4.72;;;20.00;99.90;;;;;;5022081;28;20049;-61
2022/09/03 09:24:36;;;;;;;8.65;4.88;;;20.10;99.90;;;;;;5042265;28;20033;-62
2022/09/03 09:27:04;;;;;;;7.50;4.15;;;20.10;99.90;;;;;;5041884;28;20090;-62
2022/09/03 09:29:38;;;;;;;7.35;4.22;;;20.10;99.90;;;;;;5042068;28;20564;-62
2022/09/03 09:32:08;;;;;;;8.43;4.47;;;20.20;99.90;;;;;;5046052;28;20098;-62
2022/09/03 09:34:37;;;;;;;8.18;4.28;;;20.30;99.90;;;;;;5049792;28;20037;-62
2022/09/03 09:37:10;;;;;;;13.40;4.30;;;20.40;99.90;;;;;;5044021;28;20028;-62
2022/09/03 09:39:36;;;;;;;7.75;4.80;;;20.60;99.90;;;;;;5042058;28;20283;-62
2022/09/03 09:42:10;;;;;;;8.93;4.80;;;20.70;99.90;;;;;;5047952;28;20124;-61
2022/09/03 09:44:42;;;;;;;6.32;4.38;;;20.90;99.90;;;;;;5045898;28;20091;-62
2022/09/03 09:47:13;;;;;;;9.88;4.78;;;20.90;99.90;;;;;;5050595;28;20115;-62
2022/09/03 09:49:47;;;;;;;9.27;4.30;;;20.70;99.90;;;;;;5047672;28;20096;-62
2022/09/03 09:52:15;;;;;;;7.20;4.57;;;20.60;99.90;;;;;;5049057;28;20029;-62
2022/09/03 09:54:44;;;;;;;7.68;4.10;;;20.60;99.90;;;;;;5044424;28;20112;-62
2022/09/03 09:57:21;;;;;;;5.38;4.10;;;20.50;99.90;;;;;;5035880;28;20079;-62
2022/09/03 09:59:48;;;;;;;6.03;3.95;;;20.70;99.90;;;;;;5034566;28;20030;-62
2022/09/03 10:02:26;;;;;;;5.20;4.00;;;20.80;99.90;;;;;;5051982;28;20029;-62
2022/09/03 10:04:52;;;;;;;6.63;4.20;;;21.00;99.90;;;;;;5047490;28;20895;-62
2022/09/03 10:07:31;;;;;;;6.18;4.22;;;21.10;99.90;;;;;;5039136;28;20055;-62
2022/09/03 10:10:18;;;;;;;7.70;4.13;;;21.50;99.90;;;;;;5038453;28;20079;-63
2022/09/03 10:12:57;;;;;;;6.78;4.50;;;22.10;99.90;;;;;;5037760;28;20470;-62
2022/09/03 10:15:41;;;;;;;6.35;4.57;;;22.50;99.90;;;;;;5045746;28;20036;-63
2022/09/03 10:18:44;;;;;;;10.43;4.22;;;22.70;99.90;;;;;;5043598;28;20033;-63
2022/09/03 10:21:19;;;;;;;6.80;4.30;;;22.30;99.90;;;;;;5057544;28;20044;-62
2022/09/03 10:24:14;;;;;;;6.13;4.07;;;22.60;99.90;;;;;;5032209;28;20087;-63
2022/09/03 10:26:44;;;;;;;10.82;4.20;;;22.60;99.90;;;;;;5048070;28;20055;-62
2022/09/03 10:29:13;;;;;;;6.38;4.13;;;22.70;99.90;;;;;;5034504;28;20651;-63
2022/09/03 10:32:01;;;;;;;6.70;4.00;;;23.00;99.90;;;;;;5040759;28;20096;-62
2022/09/03 10:34:41;;;;;;;10.15;3.88;;;23.20;99.90;;;;;;5047973;28;20465;-62
2022/09/03 10:37:12;;;;;;;5.03;3.47;;;23.40;99.90;;;;;;5045002;28;20037;-64
2022/09/03 10:40:10;;;;;;;4.30;3.22;;;23.70;99.90;;;;;;5045405;28;20409;-62
2022/09/03 10:42:40;;;;;;;5.57;3.50;;;23.60;99.90;;;;;;5037325;28;20041;-63
2022/09/03 10:45:12;;;;;;;5.63;3.22;;;23.70;99.90;;;;;;5035641;28;20393;-62
2022/09/03 10:47:50;;;;;;;4.40;3.40;;;23.60;99.90;;;;;;5048943;28;20025;-63
2022/09/03 10:50:24;;;;;;;4.00;3.22;;;23.50;99.90;;;;;;5048360;28;20087;-62
2022/09/03 10:53:24;;;;;;;4.90;3.10;;;23.50;99.90;;;;;;5047862;28;20025;-62
2022/09/03 10:56:00;;;;;;;4.60;3.33;;;23.70;99.90;;;;;;5060686;28;20029;-61
2022/09/03 10:58:57;;;;;;;6.50;3.17;;;23.60;99.90;;;;;;5048431;28;20033;-62
2022/09/03 11:02:03;;;;;;;4.60;3.38;;;23.80;99.90;;;;;;5047693;28;20436;-61
2022/09/03 11:04:44;;;;;;;4.95;3.33;;;23.90;99.90;;;;;;5041669;28;20037;-61
2022/09/03 11:07:13;;;;;;;5.70;3.38;;;24.50;99.50;;;;;;5038549;28;20055;-61
2022/09/03 11:09:58;;;;;;;4.60;3.17;;;24.30;98.40;;;;;;5041698;28;20033;-63
2022/09/03 11:12:48;;;;;;;4.53;3.30;;;24.30;99.30;;;;;;5039099;28;20037;-63
2022/09/03 11:15:24;;;;;;;6.93;3.25;;;24.20;98.70;;;;;;5054529;28;20106;-62
2022/09/03 11:17:55;;;;;;;4.82;3.00;;;23.60;99.70;;;;;;5039292;28;20041;-61
2022/09/03 11:20:24;;;;;;;5.55;3.55;;;23.40;99.90;;;;;;5040964;28;20041;-63
2022/09/03 11:22:55;;;;;;;4.35;3.33;;;23.00;99.90;;;;;;5046245;28;20095;-62
2022/09/03 11:25:24;;;;;;;6.10;3.20;;;23.10;99.90;;;;;;5042242;28;20044;-61
2022/09/03 11:28:27;;;;;;;4.50;3.53;;;23.10;99.90;;;;;;5034697;28;20028;-62
2022/09/03 11:31:05;;;;;;;6.15;3.30;;;23.30;99.90;;;;;;5039533;28;20040;-61
2022/09/03 11:33:34;;;;;;;4.45;3.20;;;23.20;99.90;;;;;;5042910;28;20037;-63
2022/09/03 11:36:01;;;;;;;5.50;3.42;;;23.40;99.90;;;;;;5040483;28;20024;-62
2022/09/03 11:38:30;;;;;;;3.50;2.80;;;23.80;99.90;;;;;;5049628;28;20047;-62
2022/09/03 11:41:34;;;;;;;3.67;2.87;;;24.20;98.80;;;;;;5042860;28;20124;-62
2022/09/03 11:44:15;;;;;;;3.90;3.10;;;24.80;98.90;;;;;;5047636;28;20283;-62
2022/09/03 11:46:55;;;;;;;6.35;3.00;;;24.70;97.40;;;;;;5044436;28;20032;-64
2022/09/03 11:49:29;;;;;;;7.55;3.55;;;24.30;99.60;;;;;;5046943;28;20052;-61
2022/09/03 11:52:08;;;;;;;3.85;2.90;;;24.00;98.90;;;;;;5048924;28;20094;-62
2022/09/03 11:54:43;;;;;;;6.50;3.20;;;23.60;98.80;;;;;;5035351;28;20057;-61
2022/09/03 11:57:13;;;;;;;4.53;3.10;;;23.50;99.80;;;;;;5038771;28;20739;-62
2022/09/03 11:59:42;;;;;;;5.57;3.03;;;23.60;99.10;;;;;;5048335;28;20033;-61
2022/09/03 12:02:25;;;;;;;6.03;3.05;;;23.80;99.80;;;;;;5038924;28;20060;-62
2022/09/03 12:05:06;;;;;;;5.07;3.03;;;23.90;99.60;;;;;;5051042;28;20040;-63
2022/09/03 12:07:40;;;;;;;;;;;23.90;98.10;;;;;;5053017;28;20028;-61
2022/09/03 12:10:17;;;;;;;4.97;2.67;;;23.40;99.20;;;;;;5062803;28;19913;-60
2022/09/03 12:12:45;;;;;;;4.55;3.00;;;23.10;98.90;;;;;;5041019;28;20029;-64
2022/09/03 12:15:24;;;;;;;4.95;2.65;;;22.90;99.90;;;;;;5048119;28;20032;-61
2022/09/03 12:18:21;;;;;;;3.78;3.20;;;22.80;99.80;;;;;;5035980;28;20025;-62
2022/09/03 12:20:54;;;;;;;6.28;2.95;;;22.60;99.90;;;;;;5039815;28;20040;-62
2022/09/03 12:23:32;;;;;;;6.47;3.00;;;22.60;99.90;;;;;;5033876;28;20390;-62
2022/09/03 12:26:07;;;;;;;5.35;2.80;;;22.50;99.90;;;;;;5034941;28;20029;-62
2022/09/03 12:28:38;;;;;;;6.05;3.03;;;22.50;99.90;;;;;;5035516;28;20059;-62
2022/09/03 12:31:21;;;;;;;7.38;3.20;;;22.40;99.90;;;;;;5044545;22;20106;-60
2022/09/03 12:34:10;;;;;;;6.00;3.28;;;22.20;99.90;;;;;;5020211;28;20046;-62
2022/09/03 12:36:39;;;;;;;4.28;2.88;;;22.00;99.90;;;;;;5005619;28;20693;-60
2022/09/03 12:39:24;;;;;;;6.35;3.13;;;21.80;99.90;;;;;;5014439;28;20877;-59
2022/09/03 12:42:06;;;;;;;3.72;2.83;;;21.70;99.90;;;;;;5014706;28;20057;-62
2022/09/03 12:44:34;;;;;;;4.13;3.13;;;21.70;99.90;;;;;;5020787;28;20051;-69
2022/09/03 12:47:10;;;;;;;4.57;2.90;;;21.60;99.90;;;;;;4997452;28;20549;-64
2022/09/03 12:49:38;;;;;;;6.78;2.88;;;21.60;99.90;;;;;;5013795;28;20033;-63
2022/09/03 12:52:26;;;;;;;6.82;2.85;;;21.60;99.90;;;;;;5018168;28;20478;-63
2022/09/03 12:54:58;;;;;;;4.40;3.05;;;21.60;99.90;;;;;;5013451;28;20049;-64
2022/09/03 12:57:42;;;;;;;7.63;3.15;;;21.60;99.90;;;;;;5007257;28;20855;-62
2022/09/03 13:00:12;;;;;;;7.63;3.30;;;21.60;99.90;;;;;;5011135;28;20065;-63
2022/09/03 13:02:45;;;;;;;5.80;3.50;;;21.50;99.90;;;;;;5024659;28;20044;-62
2022/09/03 13:05:18;;;;;;;4.20;2.90;;;21.50;99.90;;;;;;5017003;28;20140;-63
2022/09/03 13:07:51;;;;;;;6.57;3.30;;;21.50;99.90;;;;;;5005067;28;20053;-62
2022/09/03 13:10:32;;;;;;;4.25;2.97;;;21.40;99.90;;;;;;5007123;28;20088;-61
2022/09/03 13:13:00;;;;;;;5.45;3.13;;;21.30;99.90;;;;;;5026276;28;20042;-61
2022/09/03 13:15:27;;;;;;;5.25;3.10;;;21.20;99.90;;;;;;5007307;28;20849;-62
2022/09/03 13:18:18;;;;;;;4.35;3.15;;;21.10;99.90;;;;;;5028819;28;20042;-60
2022/09/03 13:21:23;;;;;;;8.52;2.70;;;20.90;99.90;;;;;;5008369;28;20190;-62